createdAt,value
2023-03-19T00:02:28.803Z,5.02
2023-03-19T00:05:54.606Z,5.01
2023-03-19T00:09:20.230Z,5.01
2023-03-19T00:12:44.065Z,5.00
2023-03-19T00:16:08.859Z,4.98
2023-03-19T00:19:32.833Z,4.96
2023-03-19T00:22:56.780Z,4.95
2023-03-19T00:26:20.784Z,4.92
2023-03-19T00:29:44.756Z,4.89
2023-03-19T00:33:09.427Z,4.87
2023-03-19T00:36:33.619Z,4.83
2023-03-19T00:39:57.538Z,4.81
2023-03-19T00:43:21.440Z,4.88
2023-03-19T00:46:46.066Z,4.96
2023-03-19T00:50:11.022Z,5.01
2023-03-19T00:53:42.320Z,5.07
2023-03-19T00:57:06.560Z,5.08
2023-03-19T01:00:30.479Z,5.09
2023-03-19T01:03:54.349Z,5.04
2023-03-19T01:07:19.943Z,5.00
2023-03-19T01:10:44.889Z,4.98
2023-03-19T01:14:09.196Z,4.95
2023-03-19T01:17:33.115Z,4.93
2023-03-19T01:20:56.967Z,4.94
2023-03-19T01:24:21.003Z,4.91
2023-03-19T01:27:49.499Z,4.89
2023-03-19T01:31:13.639Z,4.86
2023-03-19T01:34:58.371Z,4.84
2023-03-19T01:38:22.272Z,4.81
2023-03-19T01:41:48.723Z,4.79
2023-03-19T01:45:39.202Z,4.75
2023-03-19T01:49:28.053Z,4.69
2023-03-19T01:53:13.272Z,4.63
2023-03-19T01:57:03.621Z,4.57
2023-03-19T02:00:47.841Z,4.52
2023-03-19T02:04:12.120Z,4.45
2023-03-19T02:07:39.628Z,4.38
2023-03-19T02:11:03.945Z,4.33
2023-03-19T02:14:27.968Z,4.28
2023-03-19T02:17:53.258Z,4.25
2023-03-19T02:21:19.167Z,4.20
2023-03-19T02:25:07.764Z,4.15
2023-03-19T02:28:39.572Z,4.10
2023-03-19T02:32:04.086Z,4.04
2023-03-19T02:35:31.587Z,3.99
2023-03-19T02:38:58.684Z,3.93
2023-03-19T02:42:25.432Z,3.87
2023-03-19T02:45:49.795Z,3.87
2023-03-19T02:49:13.690Z,3.87
2023-03-19T02:52:37.925Z,3.82
2023-03-19T02:56:01.852Z,3.78
2023-03-19T02:59:25.838Z,3.73
2023-03-19T03:02:49.912Z,3.62
2023-03-19T03:06:14.318Z,3.51
2023-03-19T03:09:38.102Z,3.43
2023-03-19T03:13:02.170Z,3.35
2023-03-19T03:16:27.431Z,3.28
2023-03-19T03:19:51.279Z,3.20
2023-03-19T03:23:15.067Z,3.11
2023-03-19T03:26:39.808Z,3.06
2023-03-19T03:30:04.390Z,3.01
2023-03-19T03:33:31.779Z,2.95
2023-03-19T03:36:55.897Z,2.90
2023-03-19T03:40:20.543Z,2.86
2023-03-19T03:43:44.633Z,2.83
2023-03-19T03:47:09.013Z,2.81
2023-03-19T03:50:33.004Z,2.76
2023-03-19T03:54:01.331Z,2.72
2023-03-19T03:57:26.249Z,2.70
2023-03-19T04:00:51.188Z,2.71
2023-03-19T04:04:15.600Z,2.72
2023-03-19T04:07:39.957Z,2.73
2023-03-19T04:11:08.852Z,2.75
2023-03-19T04:14:32.992Z,2.79
2023-03-19T04:17:56.983Z,2.83
2023-03-19T04:21:21.404Z,2.87
2023-03-19T04:24:45.414Z,2.92
2023-03-19T04:28:09.809Z,2.98
2023-03-19T04:31:33.641Z,3.04
2023-03-19T04:34:58.665Z,3.10
2023-03-19T04:38:23.037Z,3.15
2023-03-19T04:41:47.264Z,3.19
2023-03-19T04:45:27.433Z,3.25
2023-03-19T04:48:51.785Z,3.31
2023-03-19T04:52:15.845Z,3.38
2023-03-19T04:55:40.018Z,3.45
2023-03-19T04:59:07.201Z,3.57
2023-03-19T05:02:31.599Z,3.75
2023-03-19T05:05:55.703Z,3.94
2023-03-19T05:09:20.215Z,4.14
2023-03-19T05:12:44.395Z,4.34
2023-03-19T05:16:09.577Z,4.56
2023-03-19T05:19:34.177Z,4.79
2023-03-19T05:22:58.661Z,5.03
2023-03-19T05:26:32.366Z,5.26
2023-03-19T05:30:18.463Z,5.48
2023-03-19T05:33:54.607Z,5.69
2023-03-19T05:37:19.053Z,5.88
2023-03-19T05:40:48.293Z,6.19
2023-03-19T05:44:21.527Z,6.54
2023-03-19T05:47:53.390Z,6.87
2023-03-19T05:51:17.608Z,7.12
2023-03-19T05:54:44.476Z,7.30
2023-03-19T05:58:26.549Z,7.45
2023-03-19T06:01:51.695Z,7.58
2023-03-19T06:05:16.762Z,7.69
2023-03-19T06:08:41.020Z,7.88
2023-03-19T06:12:19.839Z,8.09
2023-03-19T06:16:12.200Z,8.27
2023-03-19T06:19:45.256Z,8.38
2023-03-19T06:23:09.465Z,8.40
2023-03-19T06:26:33.492Z,8.35
2023-03-19T06:29:59.757Z,8.25
2023-03-19T06:33:32.134Z,8.14
2023-03-19T06:36:56.113Z,8.08
2023-03-19T06:40:20.561Z,8.01
2023-03-19T06:43:44.852Z,8.02
2023-03-19T06:47:09.746Z,8.11
2023-03-19T06:50:34.909Z,8.22
2023-03-19T06:53:59.067Z,8.34
2023-03-19T06:57:22.956Z,8.52
2023-03-19T07:00:47.306Z,8.75
2023-03-19T07:04:11.638Z,8.98
2023-03-19T07:07:35.710Z,9.17
2023-03-19T07:11:07.830Z,9.33
2023-03-19T07:14:31.854Z,9.50
2023-03-19T07:17:55.836Z,9.64
2023-03-19T07:21:20.041Z,9.77
2023-03-19T07:24:44.181Z,9.93
2023-03-19T07:28:08.268Z,10.09
2023-03-19T07:31:32.358Z,10.21
2023-03-19T07:34:56.975Z,10.30
2023-03-19T07:38:20.876Z,10.37
2023-03-19T07:41:47.773Z,10.44
2023-03-19T07:45:12.561Z,10.46
2023-03-19T07:48:37.011Z,10.54
2023-03-19T07:52:00.958Z,10.59
2023-03-19T07:55:25.265Z,10.62
2023-03-19T07:58:49.127Z,10.67
2023-03-19T08:02:13.984Z,10.72
2023-03-19T08:05:37.913Z,10.79
2023-03-19T08:09:02.215Z,10.86
2023-03-19T08:12:27.146Z,10.99
2023-03-19T08:15:51.427Z,11.15
2023-03-19T08:19:16.948Z,11.29
2023-03-19T08:22:41.946Z,11.39
2023-03-19T08:26:06.347Z,11.49
2023-03-19T08:29:30.626Z,11.60
2023-03-19T08:32:54.486Z,11.60
2023-03-19T08:36:18.711Z,11.63
2023-03-19T08:39:43.233Z,11.61
2023-03-19T08:43:07.866Z,11.61
2023-03-19T08:46:33.632Z,11.66
2023-03-19T08:49:57.884Z,11.78
2023-03-19T08:53:22.620Z,11.89
2023-03-19T08:56:46.881Z,11.99
2023-03-19T09:00:11.525Z,12.11
2023-03-19T09:03:35.848Z,12.25
2023-03-19T09:06:59.839Z,12.38
2023-03-19T09:10:23.670Z,12.45
2023-03-19T09:13:47.676Z,12.51
2023-03-19T09:17:13.538Z,12.63
2023-03-19T09:20:37.781Z,12.75
2023-03-19T09:24:01.801Z,12.88
2023-03-19T09:27:25.682Z,12.94
2023-03-19T09:30:51.799Z,13.02
2023-03-19T09:34:16.605Z,13.14
2023-03-19T09:37:40.701Z,13.15
2023-03-19T09:41:10.806Z,13.03
2023-03-19T09:44:41.071Z,12.93
2023-03-19T09:48:18.220Z,12.97
2023-03-19T09:51:51.557Z,13.11
2023-03-19T09:55:24.478Z,13.15
2023-03-19T09:58:48.850Z,13.23
2023-03-19T10:02:41.467Z,13.34
2023-03-19T10:06:14.604Z,13.42
2023-03-19T10:10:01.501Z,13.40
2023-03-19T10:13:39.857Z,13.55
2023-03-19T10:17:06.363Z,13.72
2023-03-19T10:20:49.258Z,13.83
2023-03-19T10:24:23.913Z,13.91
2023-03-19T10:27:55.387Z,14.08
2023-03-19T10:31:30.499Z,14.19
2023-03-19T10:34:54.925Z,14.00
2023-03-19T10:38:25.036Z,13.84
2023-03-19T10:41:51.954Z,13.82
2023-03-19T10:45:32.475Z,13.93
2023-03-19T10:48:58.880Z,14.14
2023-03-19T10:52:28.239Z,14.36
2023-03-19T10:55:57.011Z,14.56
2023-03-19T10:59:26.938Z,14.68
2023-03-19T11:02:54.469Z,14.74
2023-03-19T11:06:25.013Z,14.79
2023-03-19T11:09:52.787Z,14.88
2023-03-19T11:13:25.472Z,14.99
2023-03-19T11:17:08.206Z,15.04
2023-03-19T11:20:35.146Z,15.19
2023-03-19T11:24:04.657Z,15.27
2023-03-19T11:27:37.600Z,15.49
2023-03-19T11:31:21.138Z,15.68
2023-03-19T11:35:18.759Z,15.83
2023-03-19T11:39:07.933Z,15.86
2023-03-19T11:43:01.619Z,15.90
2023-03-19T11:46:34.959Z,15.94
2023-03-19T11:50:18.306Z,15.96
2023-03-19T11:53:54.515Z,16.08
2023-03-19T11:57:24.638Z,16.27
2023-03-19T12:00:52.322Z,16.52
2023-03-19T12:05:00.327Z,16.69
2023-03-19T12:08:46.582Z,16.68
2023-03-19T12:12:28.036Z,16.72
2023-03-19T12:16:22.354Z,16.94
2023-03-19T12:20:23.747Z,17.17
2023-03-19T12:24:04.572Z,16.93
2023-03-19T12:27:38.171Z,16.61
2023-03-19T12:31:17.518Z,16.67
2023-03-19T12:34:44.670Z,16.68
2023-03-19T12:38:32.554Z,16.40
2023-03-19T12:41:59.596Z,16.39
2023-03-19T12:45:23.537Z,16.66
2023-03-19T12:48:53.239Z,16.95
2023-03-19T12:52:30.225Z,17.22
2023-03-19T12:56:00.216Z,17.47
2023-03-19T12:59:44.376Z,17.58
2023-03-19T13:03:18.613Z,17.21
2023-03-19T13:06:50.981Z,16.80
2023-03-19T13:10:20.745Z,16.57
2023-03-19T13:13:59.581Z,16.47
2023-03-19T13:17:55.925Z,16.49
2023-03-19T13:21:24.773Z,16.33
2023-03-19T13:24:50.972Z,16.38
2023-03-19T13:28:28.245Z,16.47
2023-03-19T13:31:53.347Z,16.31
2023-03-19T13:35:20.173Z,16.03
2023-03-19T13:38:50.205Z,15.77
2023-03-19T13:42:38.442Z,15.64
2023-03-19T13:46:05.979Z,15.74
2023-03-19T13:49:36.809Z,15.88
2023-03-19T13:53:22.940Z,16.06
2023-03-19T13:57:02.566Z,16.23
2023-03-19T14:00:46.793Z,16.30
2023-03-19T14:04:29.711Z,16.36
2023-03-19T14:07:56.473Z,16.43
2023-03-19T14:11:25.328Z,16.29
2023-03-19T14:15:03.295Z,16.38
2023-03-19T14:18:30.581Z,16.57
2023-03-19T14:22:00.425Z,16.78
2023-03-19T14:25:29.567Z,16.98
2023-03-19T14:28:59.385Z,16.85
2023-03-19T14:32:31.435Z,16.55
2023-03-19T14:35:55.713Z,16.42
2023-03-19T14:39:27.551Z,16.43
2023-03-19T14:43:04.268Z,16.31
2023-03-19T14:46:53.199Z,16.16
2023-03-19T14:50:42.285Z,16.19
2023-03-19T14:54:29.641Z,16.31
2023-03-19T14:57:57.697Z,16.38
2023-03-19T15:01:23.246Z,16.40
2023-03-19T15:04:49.951Z,16.44
2023-03-19T15:08:14.725Z,16.50
2023-03-19T15:11:54.128Z,16.49
2023-03-19T15:15:32.288Z,16.37
2023-03-19T15:18:56.356Z,16.25
2023-03-19T15:22:31.447Z,16.15
2023-03-19T15:26:01.949Z,16.06
2023-03-19T15:29:34.097Z,15.96
2023-03-19T15:33:12.140Z,15.77
2023-03-19T15:36:41.638Z,15.62
2023-03-19T15:40:11.912Z,15.46
2023-03-19T15:43:39.194Z,15.21
2023-03-19T15:47:06.955Z,14.97
2023-03-19T15:50:35.100Z,14.79
2023-03-19T15:54:01.280Z,14.65
2023-03-19T15:57:26.688Z,14.50
2023-03-19T16:00:53.981Z,14.36
2023-03-19T16:04:26.915Z,14.20
2023-03-19T16:08:23.414Z,13.99
2023-03-19T16:11:47.657Z,13.78
2023-03-19T16:15:36.622Z,13.60
2023-03-19T16:19:00.600Z,13.40
2023-03-19T16:22:29.159Z,13.23
2023-03-19T16:25:53.213Z,12.99
2023-03-19T16:29:29.209Z,12.71
2023-03-19T16:33:00.701Z,12.49
2023-03-19T16:36:28.511Z,12.29
2023-03-19T16:40:00.881Z,12.11
2023-03-19T16:43:34.375Z,11.95
2023-03-19T16:46:58.526Z,11.81
2023-03-19T16:50:29.274Z,11.68
2023-03-19T16:53:53.347Z,11.55
2023-03-19T16:57:18.651Z,11.44
2023-03-19T17:00:44.413Z,11.34
2023-03-19T17:04:17.621Z,11.24
2023-03-19T17:07:42.350Z,11.14
2023-03-19T17:11:07.261Z,11.04
2023-03-19T17:14:32.329Z,10.95
2023-03-19T17:17:57.320Z,10.88
2023-03-19T17:21:26.291Z,10.81
2023-03-19T17:24:50.354Z,10.73
2023-03-19T17:28:14.238Z,10.67
2023-03-19T17:31:38.457Z,10.61
2023-03-19T17:35:02.432Z,10.57
2023-03-19T17:38:35.457Z,10.50
2023-03-19T17:42:00.431Z,10.44
2023-03-19T17:45:29.978Z,10.36
2023-03-19T17:48:55.880Z,10.20
2023-03-19T17:52:20.465Z,10.03
2023-03-19T17:55:44.345Z,9.91
2023-03-19T17:59:08.465Z,9.80
2023-03-19T18:02:33.541Z,9.69
2023-03-19T18:05:58.388Z,9.56
2023-03-19T18:09:25.802Z,9.43
2023-03-19T18:12:50.594Z,9.29
2023-03-19T18:16:29.101Z,9.18
2023-03-19T18:19:54.547Z,9.06
2023-03-19T18:23:19.018Z,8.94
2023-03-19T18:26:42.857Z,8.83
2023-03-19T18:30:07.212Z,8.73
2023-03-19T18:33:33.174Z,8.65
2023-03-19T18:36:57.819Z,8.54
2023-03-19T18:40:24.803Z,8.43
2023-03-19T18:43:48.887Z,8.33
2023-03-19T18:47:16.951Z,8.25
2023-03-19T18:50:41.138Z,8.18
2023-03-19T18:54:05.271Z,8.13
2023-03-19T18:57:29.180Z,8.10
2023-03-19T19:00:53.362Z,8.06
2023-03-19T19:04:18.171Z,8.00
2023-03-19T19:07:42.475Z,7.93
2023-03-19T19:11:07.952Z,7.84
2023-03-19T19:14:32.276Z,7.72
2023-03-19T19:17:56.592Z,7.63
2023-03-19T19:21:20.555Z,7.55
2023-03-19T19:24:48.657Z,7.51
2023-03-19T19:28:27.829Z,7.51
2023-03-19T19:31:52.147Z,7.47
2023-03-19T19:35:23.128Z,7.45
2023-03-19T19:38:48.538Z,7.42
2023-03-19T19:42:16.916Z,7.42
2023-03-19T19:45:41.969Z,7.38
2023-03-19T19:49:06.413Z,7.34
2023-03-19T19:52:31.846Z,7.27
2023-03-19T19:55:56.225Z,7.21
2023-03-19T19:59:22.993Z,7.12
2023-03-19T20:02:48.279Z,7.04
2023-03-19T20:06:13.368Z,6.96
2023-03-19T20:09:37.246Z,6.87
2023-03-19T20:13:02.616Z,6.79
2023-03-19T20:16:27.871Z,6.71
2023-03-19T20:19:52.574Z,6.64
2023-03-19T20:23:18.156Z,6.58
2023-03-19T20:26:42.900Z,6.52
2023-03-19T20:30:10.549Z,6.45
2023-03-19T20:33:34.809Z,6.41
2023-03-19T20:36:58.712Z,6.37
2023-03-19T20:40:25.274Z,6.34
2023-03-19T20:43:50.600Z,6.33
2023-03-19T20:47:19.554Z,6.38
2023-03-19T20:50:44.885Z,6.38
2023-03-19T20:54:09.188Z,6.36
2023-03-19T20:57:33.785Z,6.34
2023-03-19T21:00:59.049Z,6.33
2023-03-19T21:04:23.880Z,6.31
2023-03-19T21:07:50.484Z,6.31
2023-03-19T21:11:17.876Z,6.31
2023-03-19T21:14:42.495Z,6.31
2023-03-19T21:18:06.399Z,6.30
2023-03-19T21:21:35.582Z,6.28
2023-03-19T21:25:06.198Z,6.24
2023-03-19T21:28:35.394Z,6.19
2023-03-19T21:31:59.357Z,6.13
2023-03-19T21:35:25.865Z,6.10
2023-03-19T21:38:50.989Z,6.06
2023-03-19T21:42:22.594Z,6.04
2023-03-19T21:45:48.453Z,6.01
2023-03-19T21:49:12.666Z,6.00
2023-03-19T21:52:54.068Z,5.96
2023-03-19T21:56:25.382Z,5.94
2023-03-19T21:59:49.256Z,5.93
2023-03-19T22:03:21.856Z,5.91
2023-03-19T22:06:46.853Z,5.86
2023-03-19T22:10:11.436Z,5.82
2023-03-19T22:13:35.379Z,5.79
2023-03-19T22:17:00.529Z,5.73
2023-03-19T22:20:26.448Z,5.71
2023-03-19T22:23:52.082Z,5.70
2023-03-19T22:27:19.042Z,5.69
2023-03-19T22:30:43.463Z,5.68
2023-03-19T22:34:07.511Z,5.64
2023-03-19T22:37:31.611Z,5.58
2023-03-19T22:40:57.590Z,5.53
2023-03-19T22:44:29.197Z,5.48
2023-03-19T22:47:54.048Z,5.41
2023-03-19T22:51:24.025Z,5.36
2023-03-19T22:54:47.950Z,5.26
2023-03-19T22:58:11.987Z,5.22
2023-03-19T23:01:39.213Z,5.19
2023-03-19T23:05:03.299Z,5.16
2023-03-19T23:08:27.795Z,5.11
2023-03-19T23:11:52.799Z,5.06
2023-03-19T23:15:16.889Z,5.05
2023-03-19T23:18:40.705Z,5.03
2023-03-19T23:22:07.616Z,4.99
2023-03-19T23:25:31.704Z,4.95
2023-03-19T23:28:58.569Z,4.90
2023-03-19T23:32:23.050Z,4.85
2023-03-19T23:35:47.574Z,4.80
2023-03-19T23:39:11.630Z,4.75
2023-03-19T23:42:36.185Z,4.70
2023-03-19T23:46:00.331Z,4.64
2023-03-19T23:49:32.376Z,4.58
2023-03-19T23:52:57.645Z,4.54
2023-03-19T23:56:28.325Z,4.53
2023-03-19T23:59:53.542Z,4.52
